Nules, Spain
Current Conditions -  °F | °C
As of 12:00 AM on Wednesday 28 Jan 2015 (Local Time) from LEBT Reporting Station
Clear Clear  
Wind Chill: 54°   Ceiling: Unl
Heat Index: 54°   Visibility: 6mi
Dew Point: 30°   Wind: 9mph
Humidity: 41%   Direction: 330°NNW
Pressure: 30.18"   Gusts: NA
Location:  39.85°N, 0.16°W
Report Text: LEBT 272300Z AUTO 33008KT 260V020 CAVOK 12/M01 Q1022
Loading
Personal Weather Stations






























Interactive Weather Map New forecast layout! Learn more

10-Day Weather Forecast

Advertisements
Track Severe Weather on mobile